Time;durP1;ratioP1;P1;durP2;ratioP2;P2;SDS_P1;SDS_P2;PMS_P1;PMS_P2;Temp;Humidity;BMP_temperature;BMP_pressure;BME280_temperature;BME280_humidity;BME280_pressure;Samples;Min_cycle;Max_cycle;Signal;HPM_P1;HPM_P2
2023/01/29 00:00:30;;;;;;;15.43;10.90;;;;;;;5.04;51.10;98514.38;5058406;28;20429;-69
2023/01/29 00:02:55;;;;;;;10.80;8.93;;;;;;;4.99;51.29;98513.81;5051023;28;20213;-69
2023/01/29 00:05:21;;;;;;;11.90;9.57;;;;;;;5.08;51.23;98509.88;5048003;28;20196;-68
2023/01/29 00:07:46;;;;;;;12.30;9.50;;;;;;;5.08;51.09;98515.06;5055014;28;20174;-68
2023/01/29 00:10:12;;;;;;;13.67;9.33;;;;;;;5.08;51.26;98522.88;5043236;28;20199;-68
2023/01/29 00:12:38;;;;;;;12.23;9.50;;;;;;;5.15;50.66;98518.16;5056622;28;20549;-68
2023/01/29 00:15:03;;;;;;;11.50;9.43;;;;;;;5.13;50.82;98512.22;5051683;28;20999;-70
2023/01/29 00:17:29;;;;;;;13.60;8.93;;;;;;;5.17;50.61;98518.91;5055115;28;20182;-68
2023/01/29 00:19:54;;;;;;;9.73;8.43;;;;;;;5.19;50.34;98519.66;5051531;28;20274;-69
2023/01/29 00:22:20;;;;;;;11.90;9.77;;;;;;;5.18;50.75;98512.78;5040099;28;20678;-68
2023/01/29 00:24:45;;;;;;;11.07;8.57;;;;;;;5.19;50.59;98507.50;5055577;28;20565;-69
2023/01/29 00:27:10;;;;;;;13.03;8.60;;;;;;;5.20;50.41;98508.34;5043654;28;20670;-68
2023/01/29 00:29:36;;;;;;;10.90;8.67;;;;;;;5.05;50.84;98507.44;5067213;28;20649;-69
2023/01/29 00:32:01;;;;;;;9.87;8.23;;;;;;;5.03;51.09;98510.13;5049872;28;20921;-68
2023/01/29 00:34:27;;;;;;;11.60;8.80;;;;;;;5.03;51.37;98512.75;5057275;28;20402;-69
2023/01/29 00:37:03;;;;;;;13.43;8.60;;;;;;;5.07;50.93;98516.00;5055214;28;20197;-69
2023/01/29 00:39:37;;;;;;;12.17;9.20;;;;;;;5.12;50.94;98500.97;5042358;28;20170;-69
2023/01/29 00:44:57;;;;;;;13.40;8.70;;;;;;;5.17;50.76;98503.31;5051275;28;20767;-70
2023/01/29 00:47:35;;;;;;;10.83;9.03;;;;;;;5.19;50.89;98504.91;5053677;28;20425;-69
2023/01/29 00:50:02;;;;;;;12.40;9.20;;;;;;;5.16;50.65;98512.06;5055075;28;20915;-69
2023/01/29 00:52:28;;;;;;;11.30;9.43;;;;;;;5.18;51.12;98510.19;5044271;28;20441;-69
2023/01/29 00:54:58;;;;;;;10.67;9.13;;;;;;;5.14;50.98;98503.50;5061200;28;20539;-67
2023/01/29 00:57:25;;;;;;;10.20;8.07;;;;;;;5.11;50.81;98495.88;5061807;28;20179;-69
2023/01/29 00:59:51;;;;;;;12.63;9.07;;;;;;;5.04;51.03;98498.78;5070592;28;20432;-69
2023/01/29 01:05:02;;;;;;;10.90;8.87;;;;;;;4.99;51.39;98495.63;5066255;28;20515;-69
2023/01/29 01:07:28;;;;;;;11.33;9.77;;;;;;;5.01;51.46;98503.31;5059868;28;20425;-68
2023/01/29 01:12:37;;;;;;;9.60;7.57;;;;;;;5.02;51.12;98495.47;5053320;28;20440;-69
2023/01/29 01:15:03;;;;;;;11.63;8.50;;;;;;;4.91;51.23;98495.22;5057700;28;20453;-70
2023/01/29 01:17:28;;;;;;;11.30;7.90;;;;;;;5.03;51.15;98504.94;5068603;28;20680;-68
2023/01/29 01:19:54;;;;;;;9.63;7.60;;;;;;;5.00;51.10;98502.50;5060900;28;20175;-68
2023/01/29 01:22:19;;;;;;;10.70;8.07;;;;;;;4.97;51.18;98500.06;5060370;28;20226;-70
2023/01/29 01:24:45;;;;;;;9.73;7.90;;;;;;;4.96;50.39;98495.78;5065107;28;20171;-69
2023/01/29 01:27:11;;;;;;;12.00;7.73;;;;;;;4.97;50.77;98497.47;5061295;28;20240;-68
2023/01/29 01:29:37;;;;;;;13.00;7.67;;;;;;;5.02;50.64;98494.59;5066188;28;20263;-69
2023/01/29 01:32:04;;;;;;;11.37;8.30;;;;;;;5.08;50.67;98499.47;5058647;28;20820;-69
2023/01/29 01:34:29;;;;;;;10.57;7.60;;;;;;;5.10;50.68;98492.44;5059528;28;20461;-69
2023/01/29 01:36:55;;;;;;;9.13;7.17;;;;;;;5.18;49.96;98495.44;5056721;28;20511;-68
2023/01/29 01:39:21;;;;;;;12.20;7.97;;;;;;;5.16;50.22;98494.69;5056618;28;20178;-70
2023/01/29 01:41:46;;;;;;;9.70;7.40;;;;;;;5.19;50.54;98496.25;5074776;28;20224;-70
2023/01/29 01:44:49;;;;;;;9.20;8.00;;;;;;;5.16;50.44;98492.06;5059604;28;20432;-68
2023/01/29 01:47:15;;;;;;;9.00;7.37;;;;;;;5.22;50.84;98490.91;5060646;28;20182;-69
2023/01/29 01:49:42;;;;;;;11.67;7.30;;;;;;;5.13;50.48;98494.03;5061035;28;20941;-70
2023/01/29 01:52:07;;;;;;;10.60;7.60;;;;;;;5.08;50.80;98494.28;5046112;28;20956;-69
2023/01/29 01:54:33;;;;;;;10.17;7.40;;;;;;;4.87;51.26;98489.34;5063741;28;20464;-68
2023/01/29 01:57:14;;;;;;;11.03;8.10;;;;;;;4.96;50.49;98474.19;5060998;28;20217;-68
2023/01/29 01:59:42;;;;;;;9.37;7.77;;;;;;;4.94;50.71;98482.03;5061551;28;20189;-68
2023/01/29 02:10:26;;;;;;;9.77;7.77;;;;;;;5.10;50.52;98487.25;5063682;28;20417;-69
2023/01/29 02:12:51;;;;;;;8.67;7.43;;;;;;;5.15;50.13;98486.97;5068116;28;20467;-67
2023/01/29 02:15:17;;;;;;;22.70;8.07;;;;;;;5.18;50.12;98495.44;5055542;28;20489;-71
2023/01/29 02:17:47;;;;;;;10.27;8.03;;;;;;;5.20;50.60;98495.34;5069753;28;20185;-70
2023/01/29 02:20:24;;;;;;;8.67;7.03;;;;;;;5.20;50.17;98497.94;5064954;28;20226;-68
2023/01/29 02:23:34;;;;;;;18.60;7.47;;;;;;;5.16;50.22;98501.66;5058566;28;20563;-69
2023/01/29 02:26:00;;;;;;;10.23;7.40;;;;;;;5.15;49.80;98506.00;5050106;28;20429;-69
2023/01/29 02:28:28;;;;;;;8.80;7.33;;;;;;;5.15;49.73;98500.81;5058595;28;20422;-70
2023/01/29 02:31:11;;;;;;;8.80;6.70;;;;;;;5.13;50.11;98499.22;5062308;28;20213;-70
2023/01/29 02:34:09;;;;;;;8.80;6.90;;;;;;;5.14;49.99;98508.69;5058158;28;20987;-69
2023/01/29 02:37:11;;;;;;;8.97;6.63;;;;;;;5.12;50.03;98507.94;5055719;28;20500;-69
2023/01/29 02:39:41;;;;;;;7.90;6.37;;;;;;;5.06;49.90;98499.56;5059692;28;20809;-69
2023/01/29 02:42:27;;;;;;;8.50;6.57;;;;;;;5.04;49.96;98504.00;5067570;28;20447;-68
2023/01/29 02:45:24;;;;;;;8.83;7.20;;;;;;;4.71;50.23;98496.31;5053323;28;20440;-68
2023/01/29 02:47:57;;;;;;;7.70;6.57;;;;;;;4.80;50.01;98494.94;5058481;28;20429;-68
2023/01/29 02:50:39;;;;;;;9.67;6.33;;;;;;;4.74;49.77;98496.97;5080112;28;20431;-68
2023/01/29 02:53:13;;;;;;;8.40;6.20;;;;;;;4.87;49.46;98501.50;5045930;28;20449;-68
2023/01/29 02:55:47;;;;;;;6.63;5.80;;;;;;;4.86;49.33;98497.22;5060136;28;20417;-68
2023/01/29 02:58:23;;;;;;;9.67;7.03;;;;;;;4.92;49.51;98495.13;5074356;28;20432;-69
2023/01/29 03:00:51;;;;;;;10.10;6.90;;;;;;;4.94;49.40;98492.44;5073502;28;20421;-70
2023/01/29 03:03:19;;;;;;;8.63;6.53;;;;;;;4.85;49.81;98492.94;5043161;28;20476;-69
2023/01/29 03:05:53;;;;;;;8.60;6.73;;;;;;;4.80;49.50;98492.34;5058143;28;20429;-69
2023/01/29 03:08:36;;;;;;;10.83;6.60;;;;;;;4.76;49.44;98489.94;5058558;28;20429;-68
2023/01/29 03:11:05;;;;;;;10.80;6.73;;;;;;;4.66;49.31;98499.16;5058309;28;20486;-69
2023/01/29 03:13:39;;;;;;;8.60;7.20;;;;;;;4.68;50.07;98489.50;5065528;28;20452;-68
2023/01/29 03:16:32;;;;;;;9.37;6.77;;;;;;;4.79;49.73;98493.31;5057281;28;20942;-69
2023/01/29 03:19:02;;;;;;;10.93;6.80;;;;;;;4.85;49.59;98496.38;5057393;28;20426;-67
2023/01/29 03:32:45;;;;;;;10.50;8.20;;;;;;;4.89;49.49;98490.09;5065346;28;20943;-68
2023/01/29 03:35:12;;;;;;;8.80;6.97;;;;;;;4.94;49.48;98492.44;5069764;28;20560;-70
2023/01/29 03:37:44;;;;;;;9.23;6.80;;;;;;;4.97;49.89;98497.47;5069467;28;20434;-70
2023/01/29 03:40:10;;;;;;;11.10;7.57;;;;;;;4.98;49.69;98496.56;5075013;28;20436;-70
2023/01/29 03:42:43;;;;;;;13.40;7.43;;;;;;;5.01;49.86;98488.59;5066248;28;20457;-69
2023/01/29 03:45:26;;;;;;;10.67;7.33;;;;;;;5.06;49.86;98486.56;5056720;28;20463;-68
2023/01/29 03:48:05;;;;;;;10.53;6.77;;;;;;;5.06;49.36;98491.75;5050640;28;20435;-69
2023/01/29 03:50:43;;;;;;;8.97;6.57;;;;;;;5.08;49.74;98489.09;5061633;28;20517;-68
2023/01/29 03:53:46;;;;;;;9.17;7.10;;;;;;;5.07;49.65;98487.41;5062538;28;20441;-68
2023/01/29 03:56:18;;;;;;;8.20;6.70;;;;;;;5.02;49.44;98484.22;5055741;28;20935;-68
2023/01/29 03:58:57;;;;;;;7.40;6.63;;;;;;;4.97;49.86;98492.28;5052845;28;20786;-69
2023/01/29 04:01:34;;;;;;;7.20;6.43;;;;;;;4.95;49.62;98486.31;5061601;28;20453;-70
2023/01/29 04:04:23;;;;;;;9.60;6.70;;;;;;;4.96;49.34;98489.78;5064316;28;20505;-70
2023/01/29 04:06:50;;;;;;;7.47;6.57;;;;;;;4.78;49.77;98487.25;5052383;28;20425;-70
2023/01/29 04:09:24;;;;;;;14.30;7.60;;;;;;;4.73;49.26;98486.66;5065580;28;20433;-69
2023/01/29 04:12:09;;;;;;;9.47;7.73;;;;;;;4.90;49.03;98490.94;5057383;28;20437;-69
2023/01/29 04:14:35;;;;;;;7.83;7.00;;;;;;;4.86;49.19;98499.81;5050558;28;20533;-70
2023/01/29 04:17:10;;;;;;;11.13;7.60;;;;;;;4.89;49.07;98494.47;5051887;28;20417;-69
2023/01/29 04:19:35;;;;;;;15.50;7.30;;;;;;;4.91;49.27;98497.81;5052893;28;20204;-69
2023/01/29 04:22:06;;;;;;;8.30;7.50;;;;;;;4.92;48.64;98499.47;5061902;28;20535;-69
2023/01/29 04:24:32;;;;;;;10.90;7.70;;;;;;;4.96;49.64;98493.19;5062037;28;20179;-69
2023/01/29 04:27:20;;;;;;;9.70;7.33;;;;;;;4.92;49.17;98492.53;5064749;28;20509;-70
2023/01/29 04:30:23;;;;;;;12.50;7.40;;;;;;;4.93;49.15;98495.94;5051093;28;20410;-69
2023/01/29 04:33:39;;;;;;;9.83;6.40;;;;;;;4.79;49.42;98501.09;5058402;28;20496;-69
2023/01/29 04:36:13;;;;;;;7.37;6.40;;;;;;;4.70;49.05;98510.22;5044113;28;20453;-70
2023/01/29 04:39:11;;;;;;;7.70;6.40;;;;;;;4.71;49.91;98504.13;5019953;28;21169;-68
2023/01/29 04:41:50;;;;;;;7.40;6.07;;;;;;;4.85;49.52;98498.97;5051297;28;20618;-68
2023/01/29 04:44:27;;;;;;;9.27;6.97;;;;;;;4.79;49.90;98493.31;5053477;28;20944;-68
2023/01/29 04:47:47;;;;;;;8.50;6.43;;;;;;;4.83;49.19;98503.44;5056028;28;20409;-69
2023/01/29 04:50:21;;;;;;;6.37;5.73;;;;;;;4.88;49.51;98492.78;5012421;28;20515;-70
2023/01/29 04:52:55;;;;;;;9.43;6.90;;;;;;;4.85;49.29;98492.94;5041261;28;20482;-69
2023/01/29 04:55:43;;;;;;;10.20;7.30;;;;;;;4.78;48.81;98497.66;5048413;28;20466;-69
2023/01/29 04:58:25;;;;;;;9.37;6.73;;;;;;;4.78;49.14;98489.03;5052292;28;20934;-69
2023/01/29 05:00:52;;;;;;;11.00;7.70;;;;;;;4.79;49.12;98494.13;5042188;28;20425;-68
2023/01/29 05:03:18;;;;;;;9.70;7.30;;;;;;;4.84;49.46;98493.88;5049027;28;20483;-70
2023/01/29 05:05:46;;;;;;;8.83;7.10;;;;;;;4.81;49.14;98492.28;5043538;28;20431;-68
2023/01/29 05:08:15;;;;;;;10.57;8.90;;;;;;;4.82;49.24;98496.56;5049000;28;20429;-68
2023/01/29 05:10:41;;;;;;;12.80;7.13;;;;;;;4.75;49.86;98498.66;5046189;28;20417;-71
2023/01/29 05:13:10;;;;;;;8.20;6.47;;;;;;;4.70;49.60;98505.84;5041779;28;20892;-70
2023/01/29 05:15:43;;;;;;;7.40;6.20;;;;;;;4.70;49.96;98502.44;5061996;28;20222;-69
2023/01/29 05:18:09;;;;;;;10.47;7.37;;;;;;;4.69;49.86;98501.56;5048103;28;20433;-69
2023/01/29 05:20:39;;;;;;;11.27;7.60;;;;;;;4.69;49.85;98501.56;5057173;28;20478;-70
2023/01/29 05:23:17;;;;;;;10.93;7.60;;;;;;;4.70;49.26;98498.06;5021347;28;20290;-68
2023/01/29 05:25:44;;;;;;;9.43;6.90;;;;;;;4.57;49.97;98494.44;5045411;28;20421;-69
2023/01/29 05:28:16;;;;;;;9.27;7.10;;;;;;;4.54;49.67;98498.06;5054049;28;20435;-70
2023/01/29 05:30:46;;;;;;;9.80;7.53;;;;;;;4.64;49.13;98500.16;5046226;28;20499;-69
2023/01/29 05:33:18;;;;;;;10.30;6.40;;;;;;;4.66;49.40;98513.91;5045600;28;20446;-70
2023/01/29 05:35:43;;;;;;;9.27;6.93;;;;;;;4.65;49.52;98507.03;5048129;28;20422;-70
2023/01/29 05:38:09;;;;;;;7.40;6.70;;;;;;;4.69;49.64;98505.94;5047634;28;20440;-70
2023/01/29 05:40:35;;;;;;;8.27;7.07;;;;;;;4.66;49.03;98506.97;5039657;28;20182;-70
2023/01/29 05:43:01;;;;;;;8.90;7.10;;;;;;;4.65;49.20;98507.88;5056350;28;20207;-70
2023/01/29 05:45:27;;;;;;;9.07;6.53;;;;;;;4.67;49.66;98500.81;5051853;28;20183;-70
2023/01/29 05:47:57;;;;;;;9.47;7.00;;;;;;;4.64;49.50;98494.97;5052142;28;20426;-71
2023/01/29 05:50:23;;;;;;;8.67;7.00;;;;;;;4.61;49.04;98499.41;5046983;28;20603;-67
2023/01/29 05:52:48;;;;;;;8.73;7.10;;;;;;;4.63;49.50;98486.34;5051518;28;20528;-70
2023/01/29 05:55:13;;;;;;;13.27;8.00;;;;;;;4.56;49.54;98477.19;5054318;28;20469;-70
2023/01/29 05:57:39;;;;;;;10.33;7.47;;;;;;;4.46;49.89;98472.50;5050478;28;20662;-68
2023/01/29 06:00:06;;;;;;;8.67;6.80;;;;;;;4.42;49.82;98458.00;5046755;28;20194;-70
2023/01/29 06:02:31;;;;;;;9.63;7.20;;;;;;;4.51;49.68;98453.25;5047332;28;20297;-69
2023/01/29 06:04:57;;;;;;;9.73;7.40;;;;;;;4.59;49.61;98451.06;5043909;28;20491;-69
2023/01/29 06:07:22;;;;;;;10.93;7.97;;;;;;;4.58;48.65;98454.59;5042690;28;20184;-69
2023/01/29 06:09:47;;;;;;;12.63;8.20;;;;;;;4.59;48.46;98464.06;5048348;28;20194;-69
2023/01/29 06:12:13;;;;;;;13.83;8.53;;;;;;;4.60;49.10;98470.91;5043735;28;20202;-69
2023/01/29 06:14:38;;;;;;;8.67;6.70;;;;;;;4.64;49.06;98472.44;5043716;28;20195;-70
2023/01/29 06:17:04;;;;;;;11.00;7.73;;;;;;;4.63;48.80;98468.16;5047670;28;20186;-69
2023/01/29 06:19:29;;;;;;;10.53;7.57;;;;;;;4.64;48.63;98469.84;5055413;28;20681;-68
2023/01/29 06:21:55;;;;;;;10.40;8.13;;;;;;;4.49;49.46;98484.47;5052113;28;20552;-68
2023/01/29 06:24:20;;;;;;;11.57;7.80;;;;;;;4.47;50.30;98483.75;5047550;28;20185;-70
2023/01/29 06:26:46;;;;;;;9.00;7.27;;;;;;;4.56;49.66;98484.97;5041856;28;20207;-69
2023/01/29 06:29:11;;;;;;;9.37;7.23;;;;;;;4.60;49.22;98478.72;5038836;28;20237;-70
2023/01/29 06:31:37;;;;;;;10.90;7.50;;;;;;;4.59;49.69;98487.41;5047802;28;20214;-70
2023/01/29 06:34:03;;;;;;;11.97;7.47;;;;;;;4.61;49.01;98489.00;5043866;28;20257;-69
2023/01/29 06:36:28;;;;;;;11.53;7.87;;;;;;;4.62;49.32;98484.66;5052401;28;20194;-70
2023/01/29 06:38:54;;;;;;;11.17;7.07;;;;;;;4.60;49.20;98489.09;5048061;28;20425;-70
2023/01/29 06:41:24;;;;;;;9.17;7.10;;;;;;;4.57;49.71;98494.44;5048308;28;20275;-70
2023/01/29 06:43:49;;;;;;;11.83;8.17;;;;;;;4.55;49.28;98493.69;5050031;28;20171;-70
2023/01/29 06:46:14;;;;;;;10.07;7.53;;;;;;;4.48;49.49;98492.34;5050950;28;20507;-68
2023/01/29 06:48:40;;;;;;;10.70;8.23;;;;;;;4.51;49.15;98493.03;5056101;28;20261;-70
2023/01/29 06:51:07;;;;;;;10.50;8.17;;;;;;;4.54;49.48;98500.66;5050893;28;20207;-72
2023/01/29 06:53:33;;;;;;;10.53;7.90;;;;;;;4.42;49.25;98491.75;5052937;28;20225;-70
2023/01/29 06:55:59;;;;;;;7.70;6.60;;;;;;;4.42;48.80;98489.16;5064759;28;20426;-69
2023/01/29 06:58:25;;;;;;;10.03;6.93;;;;;;;4.53;48.67;98492.97;5060091;28;20508;-69
2023/01/29 07:00:50;;;;;;;8.97;7.10;;;;;;;4.56;48.78;98497.97;5060296;28;20260;-70
2023/01/29 07:03:16;;;;;;;10.00;7.50;;;;;;;4.51;48.43;98505.19;5051898;28;20206;-70
2023/01/29 07:05:41;;;;;;;10.80;8.47;;;;;;;4.50;49.12;98499.13;5052279;28;20591;-68
2023/01/29 07:08:08;;;;;;;13.80;7.60;;;;;;;4.48;49.63;98500.16;5056388;28;20197;-70
2023/01/29 07:10:34;;;;;;;12.17;7.37;;;;;;;4.43;48.92;98506.41;5050944;28;20195;-71
2023/01/29 07:13:00;;;;;;;10.83;7.40;;;;;;;4.48;48.51;98500.16;5061777;28;20448;-69
2023/01/29 07:15:26;;;;;;;8.80;7.10;;;;;;;4.46;48.86;98498.47;5054354;28;20458;-69
2023/01/29 07:18:12;;;;;;;8.47;7.27;;;;;;;4.45;49.57;98501.16;5055050;28;20187;-69
2023/01/29 07:20:39;;;;;;;10.80;7.70;;;;;;;4.32;49.83;98500.13;5056859;28;20434;-69
2023/01/29 07:23:05;;;;;;;10.20;7.80;;;;;;;4.30;49.30;98505.38;5065904;28;20472;-69
2023/01/29 07:25:32;;;;;;;9.43;7.30;;;;;;;4.20;49.91;98506.78;5059646;28;21057;-70
2023/01/29 07:27:59;;;;;;;10.33;7.10;;;;;;;4.14;50.11;98508.81;5047094;28;20184;-69
2023/01/29 07:30:25;;;;;;;8.83;7.00;;;;;;;4.18;50.18;98511.22;5067094;28;20425;-69
2023/01/29 07:32:50;;;;;;;9.33;6.93;;;;;;;4.33;49.46;98504.41;5049447;28;20528;-69
2023/01/29 07:35:16;;;;;;;10.47;7.80;;;;;;;4.41;49.39;98513.44;5059218;28;20246;-69
2023/01/29 07:37:41;;;;;;;12.80;7.93;;;;;;;4.53;49.81;98508.53;5045179;28;20196;-70
2023/01/29 07:40:10;;;;;;;9.57;7.00;;;;;;;4.53;49.08;98519.75;5061761;28;20190;-69
2023/01/29 07:42:40;;;;;;;9.90;7.67;;;;;;;4.64;49.60;98519.19;5059224;28;20285;-70
2023/01/29 07:45:07;;;;;;;11.97;9.30;;;;;;;4.64;49.08;98521.78;5046331;28;20453;-69
2023/01/29 07:47:32;;;;;;;13.73;7.37;;;;;;;4.61;48.33;98522.75;5064689;28;20425;-69
2023/01/29 07:49:58;;;;;;;8.80;7.20;;;;;;;4.64;48.50;98526.13;5037566;28;20484;-69
2023/01/29 07:52:23;;;;;;;10.60;8.80;;;;;;;4.59;48.90;98526.38;5045746;28;20235;-68
2023/01/29 07:54:49;;;;;;;7.93;6.97;;;;;;;4.63;49.13;98532.25;5045155;28;20281;-68
2023/01/29 07:57:14;;;;;;;9.47;7.20;;;;;;;4.65;48.85;98533.00;5061707;28;20206;-68
2023/01/29 07:59:39;;;;;;;8.93;7.40;;;;;;;4.72;49.26;98532.59;5061941;28;20309;-69
2023/01/29 08:02:08;;;;;;;9.67;7.70;;;;;;;4.74;48.69;98535.94;5057347;28;20230;-68
2023/01/29 08:04:33;;;;;;;11.83;7.27;;;;;;;4.70;48.44;98539.63;5053843;28;20188;-69
2023/01/29 08:06:59;;;;;;;15.87;11.03;;;;;;;4.62;49.43;98547.00;5023084;28;20450;-69
2023/01/29 08:09:24;;;;;;;26.33;19.13;;;;;;;4.43;49.06;98534.97;5030247;28;20191;-69
2023/01/29 08:11:49;;;;;;;12.97;11.17;;;;;;;4.46;49.74;98537.41;5046541;28;20228;-70
2023/01/29 08:14:15;;;;;;;15.60;11.33;;;;;;;4.43;49.51;98540.16;5052149;28;20245;-68
2023/01/29 08:16:40;;;;;;;13.70;11.10;;;;;;;4.52;49.59;98532.81;5038653;28;20186;-69
2023/01/29 08:19:06;;;;;;;11.63;8.37;;;;;;;4.56;49.23;98534.31;5046222;28;20706;-69
2023/01/29 08:21:31;;;;;;;11.13;8.60;;;;;;;4.57;49.24;98529.06;5051239;28;20290;-68
2023/01/29 08:23:57;;;;;;;11.23;8.53;;;;;;;4.59;49.97;98527.22;5047740;28;20235;-68
2023/01/29 08:26:22;;;;;;;23.30;17.20;;;;;;;4.43;49.68;98532.38;5036947;28;20229;-68
2023/01/29 08:28:48;;;;;;;59.47;34.77;;;;;;;4.26;50.24;98542.81;5054163;28;20186;-69
2023/01/29 08:31:19;;;;;;;31.83;21.50;;;;;;;4.28;49.90;98551.38;5047113;28;20675;-68
2023/01/29 08:33:45;;;;;;;27.37;21.53;;;;;;;4.40;49.62;98561.13;5053868;28;20198;-69
2023/01/29 08:36:10;;;;;;;75.77;50.80;;;;;;;4.40;49.53;98558.53;5047085;28;20419;-69
2023/01/29 08:38:36;;;;;;;41.77;28.93;;;;;;;4.46;49.28;98555.59;5048202;28;20174;-69
2023/01/29 08:41:02;;;;;;;25.87;17.87;;;;;;;4.46;49.25;98557.38;5062942;28;20860;-68
2023/01/29 08:43:27;;;;;;;17.23;13.83;;;;;;;4.33;49.39;98554.56;5057451;28;20194;-69
2023/01/29 08:45:52;;;;;;;15.30;11.73;;;;;;;4.44;49.27;98557.44;5064292;28;20217;-69
2023/01/29 08:48:18;;;;;;;12.70;10.07;;;;;;;4.45;49.92;98564.31;5053710;28;20211;-70
2023/01/29 08:50:43;;;;;;;13.40;10.07;;;;;;;4.53;49.38;98560.47;5048116;28;20554;-70
2023/01/29 08:53:09;;;;;;;13.07;10.00;;;;;;;4.52;49.61;98569.19;5050644;28;20238;-69
2023/01/29 08:55:36;;;;;;;11.37;9.87;;;;;;;4.67;48.94;98563.16;5056490;28;20245;-69
2023/01/29 08:58:05;;;;;;;10.00;8.87;;;;;;;4.69;48.93;98570.88;5063436;28;20218;-69
2023/01/29 09:00:32;;;;;;;12.33;10.00;;;;;;;4.81;48.11;98564.19;5059864;28;20844;-70
2023/01/29 09:02:58;;;;;;;15.67;10.10;;;;;;;4.89;48.35;98557.66;5065364;28;20481;-69
2023/01/29 09:05:24;;;;;;;11.50;8.90;;;;;;;4.89;48.22;98551.63;5060338;28;20442;-68
2023/01/29 09:07:50;;;;;;;11.03;9.30;;;;;;;4.91;47.51;98555.00;5061130;28;20533;-69
2023/01/29 09:10:15;;;;;;;11.60;9.73;;;;;;;4.81;48.45;98559.84;5062483;28;20562;-71
2023/01/29 09:12:41;;;;;;;11.63;9.83;;;;;;;4.95;49.15;98561.69;5066756;28;20620;-68
2023/01/29 09:15:07;;;;;;;12.10;9.60;;;;;;;5.06;47.96;98564.53;5060982;28;20212;-70
2023/01/29 09:17:32;;;;;;;12.03;9.47;;;;;;;5.08;47.79;98569.66;5058318;28;20591;-69
2023/01/29 09:19:58;;;;;;;12.57;8.73;;;;;;;5.05;47.70;98572.41;5061055;28;20523;-69
2023/01/29 09:22:23;;;;;;;12.77;9.80;;;;;;;5.07;47.53;98571.41;5061071;28;20234;-69
2023/01/29 09:24:48;;;;;;;12.10;9.60;;;;;;;5.12;47.72;98573.75;5065791;28;20752;-68
2023/01/29 09:27:14;;;;;;;12.57;9.63;;;;;;;4.98;47.63;98569.31;5062405;28;20189;-69
2023/01/29 09:29:39;;;;;;;12.10;9.87;;;;;;;4.84;47.97;98574.41;5059098;28;20186;-70
2023/01/29 09:32:05;;;;;;;12.80;9.70;;;;;;;4.97;47.77;98575.44;5063087;28;20352;-68
2023/01/29 09:34:32;;;;;;;10.10;8.33;;;;;;;4.93;47.84;98573.91;5058781;28;20707;-69
2023/01/29 09:36:57;;;;;;;11.40;8.60;;;;;;;5.10;47.06;98574.75;5054983;28;20527;-68
2023/01/29 09:39:23;;;;;;;12.33;10.20;;;;;;;5.19;47.24;98574.25;5059314;28;20179;-69
2023/01/29 09:41:50;;;;;;;12.93;10.30;;;;;;;5.19;47.44;98574.25;5062710;28;20212;-69
2023/01/29 09:44:27;;;;;;;10.37;8.90;;;;;;;5.16;47.26;98579.63;5058505;28;20644;-67
2023/01/29 09:46:54;;;;;;;10.17;8.97;;;;;;;5.16;46.02;98574.44;5053677;28;20842;-69
2023/01/29 09:49:36;;;;;;;12.20;9.70;;;;;;;5.23;45.75;98565.34;5062550;28;20444;-70
2023/01/29 09:52:12;;;;;;;11.30;8.70;;;;;;;5.26;45.29;98565.19;5061857;28;20441;-71
2023/01/29 09:55:22;;;;;;;9.53;8.30;;;;;;;5.19;45.54;98550.84;5060629;28;20452;-70
2023/01/29 09:57:51;;;;;;;10.43;8.67;;;;;;;5.21;45.57;98543.81;5042946;28;21018;-69
2023/01/29 10:00:24;;;;;;;9.67;8.57;;;;;;;5.29;46.26;98539.03;5049894;28;20433;-68
2023/01/29 10:03:08;;;;;;;10.70;9.40;;;;;;;5.25;45.60;98532.31;5063204;28;20452;-70
2023/01/29 10:06:04;;;;;;;11.60;9.60;;;;;;;5.34;45.97;98525.78;5039230;28;20813;-70
2023/01/29 10:08:58;;;;;;;10.67;9.27;;;;;;;5.36;45.68;98509.16;5057580;28;20486;-70
2023/01/29 10:11:31;;;;;;;12.20;9.77;;;;;;;5.37;45.09;98510.81;5067068;28;20449;-70
2023/01/29 10:14:10;;;;;;;11.50;9.40;;;;;;;5.29;45.60;98502.63;5059666;28;20999;-69
2023/01/29 10:16:51;;;;;;;11.07;9.40;;;;;;;5.58;45.88;98505.31;5049053;28;20788;-70
2023/01/29 10:19:25;;;;;;;12.03;9.80;;;;;;;5.72;45.79;98501.06;5066072;28;20425;-69
2023/01/29 10:21:59;;;;;;;12.27;9.37;;;;;;;5.85;44.76;98499.41;5065216;28;20971;-69
2023/01/29 10:24:34;;;;;;;12.60;10.20;;;;;;;5.96;44.72;98494.41;5051965;28;20512;-68
2023/01/29 10:26:59;;;;;;;12.80;10.23;;;;;;;5.80;44.77;98496.25;5059257;28;20424;-69
2023/01/29 10:29:26;;;;;;;10.27;8.90;;;;;;;5.88;45.42;98499.25;5064974;28;20483;-69
2023/01/29 10:31:55;;;;;;;12.60;9.83;;;;;;;5.82;44.84;98505.66;5054258;28;20583;-69
2023/01/29 10:34:31;;;;;;;10.30;9.20;;;;;;;6.02;44.44;98501.03;5060369;28;20530;-69
2023/01/29 10:36:56;;;;;;;14.03;9.10;;;;;;;6.05;44.70;98503.47;5058531;28;20433;-70
2023/01/29 10:39:23;;;;;;;13.67;10.23;;;;;;;6.14;44.58;98502.91;5065954;28;20435;-68
2023/01/29 10:42:08;;;;;;;12.20;10.43;;;;;;;6.17;44.08;98504.50;5064253;28;20201;-69
2023/01/29 10:44:55;;;;;;;12.57;10.00;;;;;;;6.14;44.60;98507.28;5054710;28;20456;-69
2023/01/29 10:47:35;;;;;;;12.40;10.07;;;;;;;6.14;44.18;98505.50;5061994;28;20946;-69
2023/01/29 10:50:28;;;;;;;11.97;9.70;;;;;;;6.26;43.92;98514.38;5056534;28;20893;-69
2023/01/29 10:53:12;;;;;;;11.33;9.83;;;;;;;6.27;44.09;98516.03;5053900;28;20436;-68
2023/01/29 10:55:50;;;;;;;12.27;10.23;;;;;;;6.32;43.80;98505.34;5039088;28;20457;-68
2023/01/29 10:58:30;;;;;;;14.27;10.60;;;;;;;6.32;43.92;98499.28;5058605;28;20431;-68
2023/01/29 11:00:56;;;;;;;15.43;9.70;;;;;;;5.92;43.83;98511.13;5063888;28;20420;-69
2023/01/29 11:03:22;;;;;;;11.43;9.93;;;;;;;5.92;44.12;98503.31;5064545;28;20819;-69
2023/01/29 11:06:19;;;;;;;10.83;9.73;;;;;;;5.88;44.37;98506.19;5060149;28;20607;-69
2023/01/29 11:09:15;;;;;;;11.43;10.10;;;;;;;6.08;44.15;98499.84;5058134;28;20414;-68
2023/01/29 11:12:04;;;;;;;14.30;10.60;;;;;;;6.20;44.31;98504.31;5058830;28;20476;-69
2023/01/29 11:14:41;;;;;;;17.77;11.60;;;;;;;6.41;44.10;98504.78;5054779;28;20453;-69
2023/01/29 11:17:15;;;;;;;15.50;11.50;;;;;;;6.43;42.95;98502.06;5060638;28;20429;-70
2023/01/29 11:19:43;;;;;;;13.17;11.60;;;;;;;6.41;43.29;98496.13;5060491;28;20547;-70
2023/01/29 11:22:18;;;;;;;13.00;10.20;;;;;;;6.35;43.26;98493.91;5063668;28;20965;-68
2023/01/29 11:24:44;;;;;;;13.17;11.00;;;;;;;6.53;43.56;98490.16;5066934;28;20417;-70
2023/01/29 11:27:22;;;;;;;12.03;10.20;;;;;;;6.65;42.54;98490.34;5063271;28;20421;-69
2023/01/29 11:29:47;;;;;;;19.33;13.60;;;;;;;6.64;42.84;98488.66;5067281;28;20485;-71
2023/01/29 11:32:27;;;;;;;13.77;10.30;;;;;;;6.52;43.09;98485.88;5060123;28;20482;-70
2023/01/29 11:35:03;;;;;;;11.37;9.83;;;;;;;6.45;43.43;98475.00;5056883;28;20309;-69
2023/01/29 11:37:33;;;;;;;12.60;10.10;;;;;;;6.60;43.12;98464.56;5055034;28;20565;-69
2023/01/29 11:39:58;;;;;;;12.53;10.90;;;;;;;6.57;43.03;98465.56;5065788;28;20455;-69
2023/01/29 11:42:26;;;;;;;13.03;10.77;;;;;;;6.54;43.36;98460.59;5067136;28;20832;-69
2023/01/29 11:44:51;;;;;;;19.67;11.07;;;;;;;6.59;43.62;98458.50;5049520;28;20277;-69
2023/01/29 11:47:26;;;;;;;20.40;10.73;;;;;;;6.75;43.55;98458.38;5053737;28;20422;-68
2023/01/29 11:49:54;;;;;;;14.10;11.67;;;;;;;6.72;43.21;98455.97;5059171;28;20282;-70
2023/01/29 11:52:25;;;;;;;15.10;10.67;;;;;;;6.73;43.17;98456.81;5057939;28;20448;-69
2023/01/29 11:54:55;;;;;;;13.57;11.20;;;;;;;6.84;43.20;98446.53;5057724;28;20449;-69
2023/01/29 11:57:25;;;;;;;14.77;12.13;;;;;;;6.82;43.58;98458.00;5054303;28;20416;-70
2023/01/29 11:59:52;;;;;;;14.37;10.83;;;;;;;6.83;42.31;98450.06;5052182;28;20456;-70
2023/01/29 12:02:41;;;;;;;10.60;9.50;;;;;;;6.81;42.22;98449.31;5063842;28;20448;-68
2023/01/29 12:05:17;;;;;;;13.70;11.07;;;;;;;6.93;42.42;98452.94;5039156;28;20432;-69
2023/01/29 12:07:45;;;;;;;22.27;10.60;;;;;;;6.79;43.30;98452.97;5053722;28;20989;-70
2023/01/29 12:10:36;;;;;;;13.90;10.57;;;;;;;6.68;43.50;98433.66;5062124;28;20444;-69
2023/01/29 12:13:08;;;;;;;15.30;9.70;;;;;;;6.73;43.62;98426.38;5018279;28;20436;-69
2023/01/29 12:15:34;;;;;;;13.80;10.67;;;;;;;6.79;43.48;98414.72;5038714;28;20454;-69
2023/01/29 12:18:02;;;;;;;13.30;10.57;;;;;;;6.79;42.73;98408.66;5033307;28;20918;-69
2023/01/29 12:20:34;;;;;;;14.37;11.00;;;;;;;6.82;43.31;98398.06;5037343;28;20557;-69